sensor_id;sensor_type;location;lat;lon;timestamp;P1;durP1;ratioP1;P2;durP2;ratioP2
19505;SDS011;9894;50.852;-0.140;2022-12-07T00:01:14;0.30;;;0.30;;
19505;SDS011;9894;50.852;-0.140;2022-12-07T00:03:41;0.30;;;0.30;;
19505;SDS011;9894;50.852;-0.140;2022-12-07T00:06:08;9.63;;;3.00;;
19505;SDS011;9894;50.852;-0.140;2022-12-07T00:08:35;0.38;;;0.38;;
19505;SDS011;9894;50.852;-0.140;2022-12-07T00:11:05;0.30;;;0.30;;
19505;SDS011;9894;50.852;-0.140;2022-12-07T00:13:31;0.20;;;0.20;;
19505;SDS011;9894;50.852;-0.140;2022-12-07T00:16:05;0.85;;;0.85;;
19505;SDS011;9894;50.852;-0.140;2022-12-07T00:18:32;0.20;;;0.20;;
19505;SDS011;9894;50.852;-0.140;2022-12-07T00:23:29;0.63;;;0.63;;
19505;SDS011;9894;50.852;-0.140;2022-12-07T00:25:55;0.95;;;0.50;;
19505;SDS011;9894;50.852;-0.140;2022-12-07T00:28:21;0.20;;;0.20;;
19505;SDS011;9894;50.852;-0.140;2022-12-07T00:30:47;0.63;;;0.52;;
19505;SDS011;9894;50.852;-0.140;2022-12-07T00:33:14;0.20;;;0.20;;
19505;SDS011;9894;50.852;-0.140;2022-12-07T00:35:40;0.82;;;0.82;;
19505;SDS011;9894;50.852;-0.140;2022-12-07T00:38:06;1.20;;;0.93;;
19505;SDS011;9894;50.852;-0.140;2022-12-07T00:40:32;0.20;;;0.20;;
19505;SDS011;9894;50.852;-0.140;2022-12-07T00:42:59;0.20;;;0.20;;
19505;SDS011;9894;50.852;-0.140;2022-12-07T00:45:25;0.20;;;0.20;;
19505;SDS011;9894;50.852;-0.140;2022-12-07T00:47:51;0.50;;;0.50;;
19505;SDS011;9894;50.852;-0.140;2022-12-07T00:50:17;0.20;;;0.20;;
19505;SDS011;9894;50.852;-0.140;2022-12-07T00:52:43;0.20;;;0.20;;
19505;SDS011;9894;50.852;-0.140;2022-12-07T00:55:10;0.20;;;0.20;;
19505;SDS011;9894;50.852;-0.140;2022-12-07T00:57:36;0.70;;;0.63;;
19505;SDS011;9894;50.852;-0.140;2022-12-07T01:00:02;0.20;;;0.20;;
19505;SDS011;9894;50.852;-0.140;2022-12-07T01:02:28;0.30;;;0.30;;
19505;SDS011;9894;50.852;-0.140;2022-12-07T01:04:54;0.40;;;0.40;;
19505;SDS011;9894;50.852;-0.140;2022-12-07T01:07:21;0.30;;;0.30;;
19505;SDS011;9894;50.852;-0.140;2022-12-07T01:09:47;1.70;;;1.58;;
19505;SDS011;9894;50.852;-0.140;2022-12-07T01:12:13;1.85;;;1.75;;
19505;SDS011;9894;50.852;-0.140;2022-12-07T01:14:43;0.20;;;0.20;;
19505;SDS011;9894;50.852;-0.140;2022-12-07T01:17:09;0.20;;;0.20;;
19505;SDS011;9894;50.852;-0.140;2022-12-07T01:19:35;0.40;;;0.40;;
19505;SDS011;9894;50.852;-0.140;2022-12-07T01:22:01;0.20;;;0.20;;
19505;SDS011;9894;50.852;-0.140;2022-12-07T01:24:27;0.28;;;0.28;;
19505;SDS011;9894;50.852;-0.140;2022-12-07T01:26:54;0.68;;;0.68;;
19505;SDS011;9894;50.852;-0.140;2022-12-07T01:29:20;0.20;;;0.20;;
19505;SDS011;9894;50.852;-0.140;2022-12-07T01:31:48;0.20;;;0.20;;
19505;SDS011;9894;50.852;-0.140;2022-12-07T01:34:14;0.20;;;0.20;;
19505;SDS011;9894;50.852;-0.140;2022-12-07T01:36:40;0.43;;;0.43;;
19505;SDS011;9894;50.852;-0.140;2022-12-07T01:39:07;0.20;;;0.20;;
19505;SDS011;9894;50.852;-0.140;2022-12-07T01:41:36;0.63;;;0.63;;
19505;SDS011;9894;50.852;-0.140;2022-12-07T01:46:37;0.20;;;0.20;;
19505;SDS011;9894;50.852;-0.140;2022-12-07T01:49:04;0.47;;;0.30;;
19505;SDS011;9894;50.852;-0.140;2022-12-07T01:51:31;0.30;;;0.30;;
19505;SDS011;9894;50.852;-0.140;2022-12-07T01:53:58;0.20;;;0.20;;
19505;SDS011;9894;50.852;-0.140;2022-12-07T01:56:25;0.22;;;0.22;;
19505;SDS011;9894;50.852;-0.140;2022-12-07T01:58:52;0.20;;;0.20;;
19505;SDS011;9894;50.852;-0.140;2022-12-07T02:01:19;0.20;;;0.20;;
19505;SDS011;9894;50.852;-0.140;2022-12-07T02:03:46;0.22;;;0.22;;
19505;SDS011;9894;50.852;-0.140;2022-12-07T02:06:14;0.80;;;0.77;;
19505;SDS011;9894;50.852;-0.140;2022-12-07T02:08:42;0.20;;;0.20;;
19505;SDS011;9894;50.852;-0.140;2022-12-07T02:11:09;1.40;;;1.35;;
19505;SDS011;9894;50.852;-0.140;2022-12-07T02:13:36;0.20;;;0.20;;
19505;SDS011;9894;50.852;-0.140;2022-12-07T02:29:27;0.30;;;0.30;;
19505;SDS011;9894;50.852;-0.140;2022-12-07T02:31:58;0.30;;;0.30;;
19505;SDS011;9894;50.852;-0.140;2022-12-07T02:36:55;0.20;;;0.20;;
19505;SDS011;9894;50.852;-0.140;2022-12-07T02:39:25;0.20;;;0.20;;
19505;SDS011;9894;50.852;-0.140;2022-12-07T02:41:54;0.63;;;0.63;;
19505;SDS011;9894;50.852;-0.140;2022-12-07T02:44:23;0.20;;;0.20;;
19505;SDS011;9894;50.852;-0.140;2022-12-07T02:47:01;0.20;;;0.20;;
19505;SDS011;9894;50.852;-0.140;2022-12-07T02:49:29;0.20;;;0.20;;
19505;SDS011;9894;50.852;-0.140;2022-12-07T02:51:56;0.60;;;0.60;;
19505;SDS011;9894;50.852;-0.140;2022-12-07T02:54:22;2.47;;;2.28;;
19505;SDS011;9894;50.852;-0.140;2022-12-07T03:07:51;1.20;;;1.20;;
19505;SDS011;9894;50.852;-0.140;2022-12-07T03:12:20;0.20;;;0.20;;
19505;SDS011;9894;50.852;-0.140;2022-12-07T03:14:52;0.90;;;0.75;;
19505;SDS011;9894;50.852;-0.140;2022-12-07T03:17:24;0.30;;;0.30;;
19505;SDS011;9894;50.852;-0.140;2022-12-07T03:19:51;0.52;;;0.52;;
19505;SDS011;9894;50.852;-0.140;2022-12-07T03:22:19;0.20;;;0.20;;
19505;SDS011;9894;50.852;-0.140;2022-12-07T03:24:47;0.20;;;0.20;;
19505;SDS011;9894;50.852;-0.140;2022-12-07T03:29:58;0.20;;;0.20;;
19505;SDS011;9894;50.852;-0.140;2022-12-07T03:32:26;0.20;;;0.20;;
19505;SDS011;9894;50.852;-0.140;2022-12-07T03:34:56;0.63;;;0.63;;
19505;SDS011;9894;50.852;-0.140;2022-12-07T03:42:30;0.20;;;0.20;;
19505;SDS011;9894;50.852;-0.140;2022-12-07T03:44:57;0.30;;;0.30;;
19505;SDS011;9894;50.852;-0.140;2022-12-07T03:49:58;0.20;;;0.20;;
19505;SDS011;9894;50.852;-0.140;2022-12-07T03:54:56;0.20;;;0.20;;
19505;SDS011;9894;50.852;-0.140;2022-12-07T03:57:25;0.20;;;0.20;;
19505;SDS011;9894;50.852;-0.140;2022-12-07T03:59:51;0.17;;;0.17;;
19505;SDS011;9894;50.852;-0.140;2022-12-07T04:02:19;0.32;;;0.32;;
19505;SDS011;9894;50.852;-0.140;2022-12-07T04:04:45;0.28;;;0.28;;
19505;SDS011;9894;50.852;-0.140;2022-12-07T04:07:12;0.20;;;0.20;;
19505;SDS011;9894;50.852;-0.140;2022-12-07T04:09:38;0.47;;;0.47;;
19505;SDS011;9894;50.852;-0.140;2022-12-07T04:12:04;0.22;;;0.22;;
19505;SDS011;9894;50.852;-0.140;2022-12-07T04:14:30;0.50;;;0.50;;
19505;SDS011;9894;50.852;-0.140;2022-12-07T04:16:57;0.20;;;0.20;;
19505;SDS011;9894;50.852;-0.140;2022-12-07T04:19:25;0.32;;;0.30;;
19505;SDS011;9894;50.852;-0.140;2022-12-07T04:21:51;4.20;;;3.80;;
19505;SDS011;9894;50.852;-0.140;2022-12-07T04:24:17;0.60;;;0.60;;
19505;SDS011;9894;50.852;-0.140;2022-12-07T04:26:44;0.20;;;0.20;;
19505;SDS011;9894;50.852;-0.140;2022-12-07T04:29:10;0.30;;;0.30;;
19505;SDS011;9894;50.852;-0.140;2022-12-07T04:31:37;0.30;;;0.30;;
19505;SDS011;9894;50.852;-0.140;2022-12-07T04:34:03;0.43;;;0.43;;
19505;SDS011;9894;50.852;-0.140;2022-12-07T04:36:30;0.20;;;0.20;;
19505;SDS011;9894;50.852;-0.140;2022-12-07T04:38:56;0.43;;;0.43;;
19505;SDS011;9894;50.852;-0.140;2022-12-07T04:41:23;0.20;;;0.20;;
19505;SDS011;9894;50.852;-0.140;2022-12-07T04:43:56;0.20;;;0.20;;
19505;SDS011;9894;50.852;-0.140;2022-12-07T04:46:23;0.20;;;0.20;;
19505;SDS011;9894;50.852;-0.140;2022-12-07T04:48:50;1.02;;;0.52;;
19505;SDS011;9894;50.852;-0.140;2022-12-07T04:51:18;0.90;;;0.90;;
19505;SDS011;9894;50.852;-0.140;2022-12-07T04:53:44;0.10;;;0.10;;
19505;SDS011;9894;50.852;-0.140;2022-12-07T04:56:11;1.83;;;0.52;;
19505;SDS011;9894;50.852;-0.140;2022-12-07T04:58:37;0.30;;;0.30;;
19505;SDS011;9894;50.852;-0.140;2022-12-07T05:01:03;0.82;;;0.80;;
19505;SDS011;9894;50.852;-0.140;2022-12-07T05:03:29;0.35;;;0.35;;
19505;SDS011;9894;50.852;-0.140;2022-12-07T05:05:55;0.38;;;0.38;;
19505;SDS011;9894;50.852;-0.140;2022-12-07T05:08:22;0.20;;;0.20;;
19505;SDS011;9894;50.852;-0.140;2022-12-07T05:10:48;1.58;;;1.48;;
19505;SDS011;9894;50.852;-0.140;2022-12-07T05:13:15;0.35;;;0.22;;
19505;SDS011;9894;50.852;-0.140;2022-12-07T05:15:41;0.22;;;0.22;;
19505;SDS011;9894;50.852;-0.140;2022-12-07T05:18:09;0.20;;;0.20;;
19505;SDS011;9894;50.852;-0.140;2022-12-07T05:20:37;3.92;;;2.05;;
19505;SDS011;9894;50.852;-0.140;2022-12-07T05:23:04;2.03;;;0.90;;
19505;SDS011;9894;50.852;-0.140;2022-12-07T05:25:30;0.20;;;0.20;;
19505;SDS011;9894;50.852;-0.140;2022-12-07T05:27:56;0.20;;;0.20;;
19505;SDS011;9894;50.852;-0.140;2022-12-07T05:30:24;0.22;;;0.22;;
19505;SDS011;9894;50.852;-0.140;2022-12-07T05:32:50;0.30;;;0.30;;
19505;SDS011;9894;50.852;-0.140;2022-12-07T05:35:17;0.20;;;0.20;;
19505;SDS011;9894;50.852;-0.140;2022-12-07T05:37:43;7.65;;;4.32;;
19505;SDS011;9894;50.852;-0.140;2022-12-07T05:40:10;0.22;;;0.22;;
19505;SDS011;9894;50.852;-0.140;2022-12-07T05:42:36;0.38;;;0.38;;
19505;SDS011;9894;50.852;-0.140;2022-12-07T05:45:03;1.48;;;0.43;;
19505;SDS011;9894;50.852;-0.140;2022-12-07T05:47:29;0.20;;;0.20;;
19505;SDS011;9894;50.852;-0.140;2022-12-07T05:49:55;0.20;;;0.20;;
19505;SDS011;9894;50.852;-0.140;2022-12-07T05:52:21;0.25;;;0.25;;
19505;SDS011;9894;50.852;-0.140;2022-12-07T05:54:54;0.10;;;0.10;;
19505;SDS011;9894;50.852;-0.140;2022-12-07T05:57:20;0.20;;;0.20;;
19505;SDS011;9894;50.852;-0.140;2022-12-07T05:59:46;0.45;;;0.45;;
19505;SDS011;9894;50.852;-0.140;2022-12-07T06:02:14;0.20;;;0.20;;
19505;SDS011;9894;50.852;-0.140;2022-12-07T06:04:43;1.65;;;0.45;;
19505;SDS011;9894;50.852;-0.140;2022-12-07T06:07:10;0.20;;;0.20;;
19505;SDS011;9894;50.852;-0.140;2022-12-07T06:09:37;0.20;;;0.20;;
19505;SDS011;9894;50.852;-0.140;2022-12-07T06:12:03;0.28;;;0.28;;
19505;SDS011;9894;50.852;-0.140;2022-12-07T06:14:48;0.20;;;0.20;;
19505;SDS011;9894;50.852;-0.140;2022-12-07T06:17:15;0.80;;;0.63;;
19505;SDS011;9894;50.852;-0.140;2022-12-07T06:19:41;0.45;;;0.45;;
19505;SDS011;9894;50.852;-0.140;2022-12-07T06:22:07;0.17;;;0.17;;
19505;SDS011;9894;50.852;-0.140;2022-12-07T06:24:34;0.30;;;0.30;;
19505;SDS011;9894;50.852;-0.140;2022-12-07T06:27:01;0.40;;;0.40;;
19505;SDS011;9894;50.852;-0.140;2022-12-07T06:29:27;0.20;;;0.20;;
19505;SDS011;9894;50.852;-0.140;2022-12-07T06:31:53;0.20;;;0.20;;
19505;SDS011;9894;50.852;-0.140;2022-12-07T06:34:20;0.13;;;0.13;;
19505;SDS011;9894;50.852;-0.140;2022-12-07T06:36:48;0.50;;;0.50;;
19505;SDS011;9894;50.852;-0.140;2022-12-07T06:39:17;0.60;;;0.60;;
19505;SDS011;9894;50.852;-0.140;2022-12-07T06:41:43;0.20;;;0.20;;
19505;SDS011;9894;50.852;-0.140;2022-12-07T06:44:10;0.10;;;0.10;;
19505;SDS011;9894;50.852;-0.140;2022-12-07T06:46:36;2.22;;;1.05;;
19505;SDS011;9894;50.852;-0.140;2022-12-07T06:49:02;0.52;;;0.50;;
19505;SDS011;9894;50.852;-0.140;2022-12-07T06:51:29;0.13;;;0.13;;
19505;SDS011;9894;50.852;-0.140;2022-12-07T06:53:55;0.30;;;0.30;;
19505;SDS011;9894;50.852;-0.140;2022-12-07T06:56:21;0.20;;;0.20;;
19505;SDS011;9894;50.852;-0.140;2022-12-07T06:58:48;1.30;;;0.85;;
19505;SDS011;9894;50.852;-0.140;2022-12-07T07:01:16;0.52;;;0.52;;
19505;SDS011;9894;50.852;-0.140;2022-12-07T07:03:43;0.47;;;0.47;;
19505;SDS011;9894;50.852;-0.140;2022-12-07T07:06:09;0.38;;;0.38;;
19505;SDS011;9894;50.852;-0.140;2022-12-07T07:08:36;0.20;;;0.20;;
19505;SDS011;9894;50.852;-0.140;2022-12-07T07:11:02;0.20;;;0.20;;
19505;SDS011;9894;50.852;-0.140;2022-12-07T07:13:29;0.20;;;0.20;;
19505;SDS011;9894;50.852;-0.140;2022-12-07T07:15:55;0.82;;;0.73;;
19505;SDS011;9894;50.852;-0.140;2022-12-07T07:18:21;0.47;;;0.47;;
19505;SDS011;9894;50.852;-0.140;2022-12-07T07:20:47;0.60;;;0.60;;
19505;SDS011;9894;50.852;-0.140;2022-12-07T07:23:14;0.20;;;0.20;;
19505;SDS011;9894;50.852;-0.140;2022-12-07T07:25:40;0.20;;;0.20;;
19505;SDS011;9894;50.852;-0.140;2022-12-07T07:28:06;0.20;;;0.20;;
19505;SDS011;9894;50.852;-0.140;2022-12-07T07:30:32;0.80;;;0.80;;
19505;SDS011;9894;50.852;-0.140;2022-12-07T07:32:59;0.20;;;0.20;;
19505;SDS011;9894;50.852;-0.140;2022-12-07T07:35:26;2.15;;;1.38;;
19505;SDS011;9894;50.852;-0.140;2022-12-07T07:37:53;2.42;;;0.73;;
19505;SDS011;9894;50.852;-0.140;2022-12-07T07:40:20;0.35;;;0.35;;
19505;SDS011;9894;50.852;-0.140;2022-12-07T07:42:47;0.32;;;0.32;;
19505;SDS011;9894;50.852;-0.140;2022-12-07T07:45:13;0.60;;;0.60;;
19505;SDS011;9894;50.852;-0.140;2022-12-07T07:47:40;0.40;;;0.40;;
19505;SDS011;9894;50.852;-0.140;2022-12-07T07:50:06;0.20;;;0.20;;
19505;SDS011;9894;50.852;-0.140;2022-12-07T07:52:32;1.13;;;1.05;;
19505;SDS011;9894;50.852;-0.140;2022-12-07T07:54:58;1.52;;;0.38;;
19505;SDS011;9894;50.852;-0.140;2022-12-07T07:57:24;0.20;;;0.20;;
19505;SDS011;9894;50.852;-0.140;2022-12-07T07:59:51;0.20;;;0.20;;
19505;SDS011;9894;50.852;-0.140;2022-12-07T08:02:17;0.20;;;0.20;;
19505;SDS011;9894;50.852;-0.140;2022-12-07T08:04:46;0.63;;;0.63;;
19505;SDS011;9894;50.852;-0.140;2022-12-07T08:07:12;0.57;;;0.57;;
19505;SDS011;9894;50.852;-0.140;2022-12-07T08:09:38;0.98;;;0.63;;
19505;SDS011;9894;50.852;-0.140;2022-12-07T08:12:05;0.50;;;0.50;;
19505;SDS011;9894;50.852;-0.140;2022-12-07T08:14:31;1.95;;;0.95;;
19505;SDS011;9894;50.852;-0.140;2022-12-07T08:16:58;0.30;;;0.30;;
19505;SDS011;9894;50.852;-0.140;2022-12-07T08:19:24;0.95;;;0.95;;
19505;SDS011;9894;50.852;-0.140;2022-12-07T08:21:50;0.40;;;0.40;;
19505;SDS011;9894;50.852;-0.140;2022-12-07T08:24:16;1.13;;;0.75;;
19505;SDS011;9894;50.852;-0.140;2022-12-07T08:26:43;0.20;;;0.20;;
19505;SDS011;9894;50.852;-0.140;2022-12-07T08:29:09;1.15;;;0.95;;
19505;SDS011;9894;50.852;-0.140;2022-12-07T08:31:35;0.90;;;0.88;;
19505;SDS011;9894;50.852;-0.140;2022-12-07T08:34:01;2.03;;;1.30;;
19505;SDS011;9894;50.852;-0.140;2022-12-07T08:36:28;0.60;;;0.60;;
19505;SDS011;9894;50.852;-0.140;2022-12-07T08:38:54;0.65;;;0.65;;
19505;SDS011;9894;50.852;-0.140;2022-12-07T08:41:20;0.65;;;0.40;;
19505;SDS011;9894;50.852;-0.140;2022-12-07T08:43:46;0.32;;;0.32;;
19505;SDS011;9894;50.852;-0.140;2022-12-07T08:48:55;0.82;;;0.82;;
19505;SDS011;9894;50.852;-0.140;2022-12-07T08:51:22;0.20;;;0.20;;
19505;SDS011;9894;50.852;-0.140;2022-12-07T08:53:49;1.10;;;0.55;;
19505;SDS011;9894;50.852;-0.140;2022-12-07T08:56:15;0.10;;;0.10;;
19505;SDS011;9894;50.852;-0.140;2022-12-07T08:58:42;0.20;;;0.20;;
19505;SDS011;9894;50.852;-0.140;2022-12-07T09:01:08;0.20;;;0.20;;
19505;SDS011;9894;50.852;-0.140;2022-12-07T09:03:34;0.20;;;0.20;;
19505;SDS011;9894;50.852;-0.140;2022-12-07T09:06:01;0.35;;;0.35;;
19505;SDS011;9894;50.852;-0.140;2022-12-07T09:08:29;0.30;;;0.30;;
19505;SDS011;9894;50.852;-0.140;2022-12-07T09:10:56;0.57;;;0.57;;
19505;SDS011;9894;50.852;-0.140;2022-12-07T09:13:23;0.60;;;0.60;;
19505;SDS011;9894;50.852;-0.140;2022-12-07T09:15:49;0.20;;;0.20;;
19505;SDS011;9894;50.852;-0.140;2022-12-07T09:18:15;0.55;;;0.55;;
19505;SDS011;9894;50.852;-0.140;2022-12-07T09:20:41;0.20;;;0.20;;
19505;SDS011;9894;50.852;-0.140;2022-12-07T09:23:07;0.43;;;0.43;;
19505;SDS011;9894;50.852;-0.140;2022-12-07T09:25:34;0.20;;;0.20;;
19505;SDS011;9894;50.852;-0.140;2022-12-07T09:28:00;0.20;;;0.20;;
19505;SDS011;9894;50.852;-0.140;2022-12-07T09:30:33;0.85;;;0.82;;
19505;SDS011;9894;50.852;-0.140;2022-12-07T09:32:59;2.50;;;0.60;;
19505;SDS011;9894;50.852;-0.140;2022-12-07T09:35:25;0.20;;;0.20;;
19505;SDS011;9894;50.852;-0.140;2022-12-07T09:37:52;0.40;;;0.40;;
19505;SDS011;9894;50.852;-0.140;2022-12-07T09:40:19;0.30;;;0.30;;
19505;SDS011;9894;50.852;-0.140;2022-12-07T09:42:53;0.20;;;0.20;;
19505;SDS011;9894;50.852;-0.140;2022-12-07T09:47:47;0.20;;;0.20;;
19505;SDS011;9894;50.852;-0.140;2022-12-07T09:50:14;4.95;;;1.23;;
19505;SDS011;9894;50.852;-0.140;2022-12-07T09:52:42;0.25;;;0.25;;
19505;SDS011;9894;50.852;-0.140;2022-12-07T09:55:10;0.30;;;0.30;;
19505;SDS011;9894;50.852;-0.140;2022-12-07T09:57:36;0.30;;;0.30;;
19505;SDS011;9894;50.852;-0.140;2022-12-07T10:00:04;0.75;;;0.68;;
19505;SDS011;9894;50.852;-0.140;2022-12-07T10:02:37;0.52;;;0.47;;
19505;SDS011;9894;50.852;-0.140;2022-12-07T10:05:10;0.30;;;0.30;;
19505;SDS011;9894;50.852;-0.140;2022-12-07T10:07:36;0.57;;;0.52;;
19505;SDS011;9894;50.852;-0.140;2022-12-07T10:10:04;0.50;;;0.50;;
19505;SDS011;9894;50.852;-0.140;2022-12-07T10:12:30;0.30;;;0.30;;
19505;SDS011;9894;50.852;-0.140;2022-12-07T10:14:59;0.95;;;0.90;;
19505;SDS011;9894;50.852;-0.140;2022-12-07T10:20:14;1.20;;;0.82;;
19505;SDS011;9894;50.852;-0.140;2022-12-07T10:23:00;1.40;;;0.63;;
19505;SDS011;9894;50.852;-0.140;2022-12-07T10:25:28;5.32;;;1.48;;
19505;SDS011;9894;50.852;-0.140;2022-12-07T10:30:27;0.20;;;0.20;;
19505;SDS011;9894;50.852;-0.140;2022-12-07T10:32:54;0.38;;;0.38;;
19505;SDS011;9894;50.852;-0.140;2022-12-07T10:35:21;0.60;;;0.60;;
19505;SDS011;9894;50.852;-0.140;2022-12-07T10:37:48;0.40;;;0.40;;
19505;SDS011;9894;50.852;-0.140;2022-12-07T10:43:00;0.30;;;0.30;;
19505;SDS011;9894;50.852;-0.140;2022-12-07T10:45:27;1.65;;;0.75;;
19505;SDS011;9894;50.852;-0.140;2022-12-07T11:00:37;0.30;;;0.30;;
19505;SDS011;9894;50.852;-0.140;2022-12-07T11:05:45;0.30;;;0.30;;
19505;SDS011;9894;50.852;-0.140;2022-12-07T11:10:55;0.40;;;0.40;;
19505;SDS011;9894;50.852;-0.140;2022-12-07T11:26:04;1.48;;;0.75;;
19505;SDS011;9894;50.852;-0.140;2022-12-07T11:31:27;1.33;;;1.27;;
19505;SDS011;9894;50.852;-0.140;2022-12-07T11:36:41;1.20;;;1.20;;
19505;SDS011;9894;50.852;-0.140;2022-12-07T11:41:46;3.10;;;2.08;;
19505;SDS011;9894;50.852;-0.140;2022-12-07T11:44:24;2.33;;;2.22;;
19505;SDS011;9894;50.852;-0.140;2022-12-07T11:52:04;3.20;;;3.00;;
19505;SDS011;9894;50.852;-0.140;2022-12-07T11:54:32;3.50;;;3.30;;
19505;SDS011;9894;50.852;-0.140;2022-12-07T11:57:02;3.40;;;3.20;;
19505;SDS011;9894;50.852;-0.140;2022-12-07T11:59:31;3.10;;;3.00;;
19505;SDS011;9894;50.852;-0.140;2022-12-07T12:04:34;4.00;;;3.70;;
19505;SDS011;9894;50.852;-0.140;2022-12-07T12:07:05;3.42;;;3.22;;
19505;SDS011;9894;50.852;-0.140;2022-12-07T12:09:34;3.83;;;3.63;;
19505;SDS011;9894;50.852;-0.140;2022-12-07T12:14:49;4.00;;;3.80;;
19505;SDS011;9894;50.852;-0.140;2022-12-07T12:22:17;5.05;;;4.65;;
19505;SDS011;9894;50.852;-0.140;2022-12-07T12:24:45;5.07;;;4.68;;
19505;SDS011;9894;50.852;-0.140;2022-12-07T12:27:18;3.97;;;3.70;;
19505;SDS011;9894;50.852;-0.140;2022-12-07T12:29:50;3.50;;;3.30;;
19505;SDS011;9894;50.852;-0.140;2022-12-07T12:32:19;3.80;;;3.50;;
19505;SDS011;9894;50.852;-0.140;2022-12-07T12:47:55;4.00;;;3.80;;
19505;SDS011;9894;50.852;-0.140;2022-12-07T12:53:34;4.70;;;4.40;;
19505;SDS011;9894;50.852;-0.140;2022-12-07T12:58:29;5.15;;;4.85;;
19505;SDS011;9894;50.852;-0.140;2022-12-07T13:03:39;5.32;;;5.03;;
19505;SDS011;9894;50.852;-0.140;2022-12-07T13:08:50;6.18;;;5.78;;
19505;SDS011;9894;50.852;-0.140;2022-12-07T13:13:43;6.20;;;5.80;;
19505;SDS011;9894;50.852;-0.140;2022-12-07T13:18:37;6.85;;;6.45;;
19505;SDS011;9894;50.852;-0.140;2022-12-07T13:26:00;7.85;;;7.25;;
19505;SDS011;9894;50.852;-0.140;2022-12-07T13:28:32;6.50;;;6.10;;
19505;SDS011;9894;50.852;-0.140;2022-12-07T13:33:45;6.50;;;6.10;;
19505;SDS011;9894;50.852;-0.140;2022-12-07T13:36:21;6.68;;;6.28;;
19505;SDS011;9894;50.852;-0.140;2022-12-07T13:38:49;6.30;;;5.90;;
19505;SDS011;9894;50.852;-0.140;2022-12-07T13:41:16;7.63;;;6.28;;
19505;SDS011;9894;50.852;-0.140;2022-12-07T13:43:44;6.50;;;5.60;;
19505;SDS011;9894;50.852;-0.140;2022-12-07T13:46:10;6.30;;;5.90;;
19505;SDS011;9894;50.852;-0.140;2022-12-07T13:48:49;6.22;;;5.82;;
19505;SDS011;9894;50.852;-0.140;2022-12-07T13:51:25;6.13;;;5.72;;
19505;SDS011;9894;50.852;-0.140;2022-12-07T13:53:53;5.68;;;5.38;;
19505;SDS011;9894;50.852;-0.140;2022-12-07T13:56:25;5.55;;;5.25;;
19505;SDS011;9894;50.852;-0.140;2022-12-07T13:58:52;5.40;;;5.10;;
19505;SDS011;9894;50.852;-0.140;2022-12-07T14:01:18;5.90;;;5.40;;
19505;SDS011;9894;50.852;-0.140;2022-12-07T14:03:44;5.60;;;5.30;;
19505;SDS011;9894;50.852;-0.140;2022-12-07T14:08:40;5.60;;;5.30;;
19505;SDS011;9894;50.852;-0.140;2022-12-07T14:11:08;5.43;;;5.13;;
19505;SDS011;9894;50.852;-0.140;2022-12-07T14:13:37;5.82;;;5.43;;
19505;SDS011;9894;50.852;-0.140;2022-12-07T14:16:28;6.10;;;5.70;;
19505;SDS011;9894;50.852;-0.140;2022-12-07T14:18:56;5.60;;;5.30;;
19505;SDS011;9894;50.852;-0.140;2022-12-07T14:21:24;5.40;;;5.10;;
19505;SDS011;9894;50.852;-0.140;2022-12-07T14:24:11;5.50;;;5.20;;
19505;SDS011;9894;50.852;-0.140;2022-12-07T14:26:38;5.30;;;5.00;;
19505;SDS011;9894;50.852;-0.140;2022-12-07T14:32:13;5.22;;;4.93;;
19505;SDS011;9894;50.852;-0.140;2022-12-07T14:34:41;5.38;;;5.07;;
19505;SDS011;9894;50.852;-0.140;2022-12-07T14:37:08;5.47;;;5.18;;
19505;SDS011;9894;50.852;-0.140;2022-12-07T14:39:35;5.50;;;5.20;;
19505;SDS011;9894;50.852;-0.140;2022-12-07T14:42:01;5.75;;;5.45;;
19505;SDS011;9894;50.852;-0.140;2022-12-07T14:44:28;5.57;;;5.20;;
19505;SDS011;9894;50.852;-0.140;2022-12-07T14:46:54;5.50;;;5.20;;
19505;SDS011;9894;50.852;-0.140;2022-12-07T14:49:20;5.70;;;5.40;;
19505;SDS011;9894;50.852;-0.140;2022-12-07T14:51:50;6.03;;;5.60;;
19505;SDS011;9894;50.852;-0.140;2022-12-07T14:54:17;5.90;;;5.50;;
19505;SDS011;9894;50.852;-0.140;2022-12-07T14:56:44;5.90;;;5.50;;
19505;SDS011;9894;50.852;-0.140;2022-12-07T14:59:14;5.60;;;5.30;;
19505;SDS011;9894;50.852;-0.140;2022-12-07T15:01:40;5.70;;;5.40;;
19505;SDS011;9894;50.852;-0.140;2022-12-07T15:04:06;5.20;;;4.90;;
19505;SDS011;9894;50.852;-0.140;2022-12-07T15:06:32;6.00;;;5.60;;
19505;SDS011;9894;50.852;-0.140;2022-12-07T15:08:58;5.72;;;5.40;;
19505;SDS011;9894;50.852;-0.140;2022-12-07T15:11:25;5.60;;;5.30;;
19505;SDS011;9894;50.852;-0.140;2022-12-07T15:13:51;5.30;;;5.00;;
19505;SDS011;9894;50.852;-0.140;2022-12-07T15:16:36;5.38;;;5.07;;
19505;SDS011;9894;50.852;-0.140;2022-12-07T15:19:04;6.25;;;5.85;;
19505;SDS011;9894;50.852;-0.140;2022-12-07T15:21:30;6.00;;;5.60;;
19505;SDS011;9894;50.852;-0.140;2022-12-07T15:23:57;7.68;;;7.15;;
19505;SDS011;9894;50.852;-0.140;2022-12-07T15:26:23;6.20;;;5.80;;
19505;SDS011;9894;50.852;-0.140;2022-12-07T15:28:49;5.70;;;5.40;;
19505;SDS011;9894;50.852;-0.140;2022-12-07T15:31:16;5.72;;;5.43;;
19505;SDS011;9894;50.852;-0.140;2022-12-07T15:33:43;5.60;;;5.30;;
19505;SDS011;9894;50.852;-0.140;2022-12-07T15:36:16;6.00;;;5.60;;
19505;SDS011;9894;50.852;-0.140;2022-12-07T15:38:43;6.20;;;5.80;;
19505;SDS011;9894;50.852;-0.140;2022-12-07T15:41:09;29.73;;;27.15;;
19505;SDS011;9894;50.852;-0.140;2022-12-07T15:43:36;6.18;;;5.78;;
19505;SDS011;9894;50.852;-0.140;2022-12-07T15:46:21;6.40;;;6.00;;
19505;SDS011;9894;50.852;-0.140;2022-12-07T15:48:47;6.45;;;6.05;;
19505;SDS011;9894;50.852;-0.140;2022-12-07T15:51:13;6.10;;;5.70;;
19505;SDS011;9894;50.852;-0.140;2022-12-07T15:53:40;6.10;;;5.70;;
19505;SDS011;9894;50.852;-0.140;2022-12-07T15:56:07;6.50;;;6.10;;
19505;SDS011;9894;50.852;-0.140;2022-12-07T15:58:34;6.20;;;5.80;;
19505;SDS011;9894;50.852;-0.140;2022-12-07T16:01:10;5.85;;;5.47;;
19505;SDS011;9894;50.852;-0.140;2022-12-07T16:03:37;7.28;;;6.78;;
19505;SDS011;9894;50.852;-0.140;2022-12-07T16:06:03;5.90;;;5.50;;
19505;SDS011;9894;50.852;-0.140;2022-12-07T16:08:29;5.70;;;5.40;;
19505;SDS011;9894;50.852;-0.140;2022-12-07T16:10:55;5.30;;;5.00;;
19505;SDS011;9894;50.852;-0.140;2022-12-07T16:13:22;5.30;;;5.00;;
19505;SDS011;9894;50.852;-0.140;2022-12-07T16:15:48;5.10;;;4.80;;
19505;SDS011;9894;50.852;-0.140;2022-12-07T16:18:14;4.40;;;4.20;;
19505;SDS011;9894;50.852;-0.140;2022-12-07T16:20:40;4.60;;;4.30;;
19505;SDS011;9894;50.852;-0.140;2022-12-07T16:23:07;4.72;;;4.43;;
19505;SDS011;9894;50.852;-0.140;2022-12-07T16:25:33;4.20;;;4.00;;
19505;SDS011;9894;50.852;-0.140;2022-12-07T16:27:59;3.70;;;3.50;;
19505;SDS011;9894;50.852;-0.140;2022-12-07T16:30:25;3.70;;;3.50;;
19505;SDS011;9894;50.852;-0.140;2022-12-07T16:32:51;3.50;;;3.30;;
19505;SDS011;9894;50.852;-0.140;2022-12-07T16:35:18;5.65;;;3.58;;
19505;SDS011;9894;50.852;-0.140;2022-12-07T16:37:44;3.30;;;3.10;;
19505;SDS011;9894;50.852;-0.140;2022-12-07T16:40:10;2.80;;;2.70;;
19505;SDS011;9894;50.852;-0.140;2022-12-07T16:42:36;3.25;;;3.05;;
19505;SDS011;9894;50.852;-0.140;2022-12-07T16:45:03;2.72;;;2.63;;
19505;SDS011;9894;50.852;-0.140;2022-12-07T16:47:29;2.40;;;2.30;;
19505;SDS011;9894;50.852;-0.140;2022-12-07T16:49:55;3.13;;;2.83;;
19505;SDS011;9894;50.852;-0.140;2022-12-07T16:52:22;2.10;;;2.00;;
19505;SDS011;9894;50.852;-0.140;2022-12-07T16:54:48;3.35;;;3.05;;
19505;SDS011;9894;50.852;-0.140;2022-12-07T16:57:15;1.70;;;1.70;;
19505;SDS011;9894;50.852;-0.140;2022-12-07T16:59:42;2.03;;;1.92;;
19505;SDS011;9894;50.852;-0.140;2022-12-07T17:02:11;1.52;;;1.52;;
19505;SDS011;9894;50.852;-0.140;2022-12-07T17:04:37;2.25;;;2.17;;
19505;SDS011;9894;50.852;-0.140;2022-12-07T17:07:08;1.40;;;1.40;;
19505;SDS011;9894;50.852;-0.140;2022-12-07T17:09:34;1.30;;;1.30;;
19505;SDS011;9894;50.852;-0.140;2022-12-07T17:12:00;1.30;;;1.30;;
19505;SDS011;9894;50.852;-0.140;2022-12-07T17:14:26;1.50;;;1.40;;
19505;SDS011;9894;50.852;-0.140;2022-12-07T17:17:11;2.20;;;2.10;;
19505;SDS011;9894;50.852;-0.140;2022-12-07T17:19:37;1.10;;;1.10;;
19505;SDS011;9894;50.852;-0.140;2022-12-07T17:22:04;1.40;;;1.40;;
19505;SDS011;9894;50.852;-0.140;2022-12-07T17:24:30;1.17;;;1.17;;
19505;SDS011;9894;50.852;-0.140;2022-12-07T17:26:56;1.00;;;1.00;;